createdAt,value
2019-05-05T15:32:01.031Z,97754.66
2019-05-05T15:34:34.351Z,97761.31
2019-05-05T15:37:09.781Z,97752.14
2019-05-05T15:39:44.157Z,97757.33
2019-05-05T15:42:33.512Z,97765.01
2019-05-05T15:45:06.150Z,97765.22
2019-05-05T15:47:37.835Z,97757.12
2019-05-05T15:50:10.137Z,97763.66
2019-05-05T15:52:43.913Z,97763.48
2019-05-05T15:55:15.526Z,97773.27
2019-05-05T15:57:48.681Z,97771.97
2019-05-05T16:00:20.844Z,97768.83
2019-05-05T16:02:54.728Z,97766.98
2019-05-05T16:05:26.277Z,97766.46
2019-05-05T16:07:58.427Z,97769.86
2019-05-05T16:10:30.567Z,97775.64
2019-05-05T16:13:04.469Z,97767.16
2019-05-05T16:15:55.727Z,97768.68
2019-05-05T16:18:48.664Z,97758.37
2019-05-05T16:21:43.877Z,97747.45
2019-05-05T16:24:19.733Z,97752.67
2019-05-05T16:26:51.375Z,97759.27
2019-05-05T16:29:24.057Z,97761.48
2019-05-05T16:31:56.032Z,97764.75
2019-05-05T16:34:28.104Z,97756.40
2019-05-05T16:36:59.832Z,97751.36
2019-05-05T16:39:33.550Z,97761.27
2019-05-05T16:42:05.883Z,97757.63
2019-05-05T16:44:38.618Z,97766.75
2019-05-05T16:47:10.497Z,97759.40
2019-05-05T16:49:44.517Z,97771.61
2019-05-05T16:52:23.950Z,97754.34
2019-05-05T16:55:23.933Z,97784.93
2019-05-05T16:57:55.738Z,97756.38
2019-05-05T17:00:27.527Z,97767.88
2019-05-05T17:03:00.291Z,97762.55
2019-05-05T17:05:34.478Z,97770.51
2019-05-05T17:08:06.417Z,97769.78
2019-05-05T17:10:39.020Z,97780.21
2019-05-05T17:13:21.579Z,97781.16
2019-05-05T17:16:01.661Z,97778.14
2019-05-05T17:18:49.327Z,97780.02
2019-05-05T17:21:29.954Z,97782.34
2019-05-05T17:24:01.516Z,97783.98
2019-05-05T17:26:35.456Z,97777.02
2019-05-05T17:29:08.254Z,97775.77
2019-05-05T17:31:40.108Z,97778.94
2019-05-05T17:34:13.649Z,97777.64
2019-05-05T17:36:46.950Z,97788.42
2019-05-05T17:39:19.226Z,97790.95
2019-05-05T17:42:14.203Z,97779.29
2019-05-05T17:45:00.067Z,97790.47
2019-05-05T17:47:39.242Z,97794.63
2019-05-05T17:50:20.281Z,97803.19
2019-05-05T17:53:02.461Z,97797.17
2019-05-05T17:55:36.108Z,97803.44
2019-05-05T17:58:07.939Z,97806.91
2019-05-05T18:00:47.161Z,97807.24
2019-05-05T18:03:20.889Z,97815.16
2019-05-05T18:06:11.741Z,97805.33
2019-05-05T18:08:50.536Z,97804.91
2019-05-05T18:11:36.211Z,97799.88
2019-05-05T18:14:14.498Z,97811.84
2019-05-05T18:16:46.163Z,97804.80
2019-05-05T18:19:17.727Z,97811.66
2019-05-05T18:21:49.209Z,97814.40
2019-05-05T18:24:20.872Z,97807.75
2019-05-05T18:26:53.735Z,97807.75
2019-05-05T18:29:25.832Z,97793.92
2019-05-05T18:31:57.536Z,97824.19
2019-05-05T18:34:29.766Z,97818.03
2019-05-05T18:37:01.360Z,97817.28
2019-05-05T18:39:34.408Z,97809.42
2019-05-05T18:42:14.917Z,97820.03
2019-05-05T18:44:48.797Z,97824.91
2019-05-05T18:47:20.887Z,97823.66
2019-05-05T18:49:53.960Z,97830.45
2019-05-05T18:52:26.298Z,97833.20
2019-05-05T18:54:57.902Z,97840.05
2019-05-05T18:57:29.844Z,97832.62
2019-05-05T19:00:03.797Z,97837.71
2019-05-05T19:02:44.244Z,97835.54
2019-05-05T19:05:37.042Z,97832.79
2019-05-05T19:08:14.355Z,97829.63
2019-05-05T19:10:45.893Z,97823.61
2019-05-05T19:13:17.801Z,97833.61
2019-05-05T19:15:50.124Z,97838.64
2019-05-05T19:18:24.327Z,97833.20
2019-05-05T19:21:03.673Z,97831.80
2019-05-05T19:23:36.653Z,97834.19
2019-05-05T19:26:08.158Z,97831.80
2019-05-05T19:28:44.638Z,97839.66
2019-05-05T19:31:14.290Z,97843.70
2019-05-05T19:33:47.132Z,97842.41
2019-05-05T19:36:18.928Z,97836.56
2019-05-05T19:38:51.256Z,97840.05
2019-05-05T19:41:23.820Z,97843.10
2019-05-05T19:43:55.479Z,97845.33
2019-05-05T19:46:47.273Z,97847.28
2019-05-05T19:49:19.576Z,97851.95
2019-05-05T19:51:51.262Z,97852.31
2019-05-05T19:54:22.996Z,97856.52
2019-05-05T19:56:54.820Z,97847.14
2019-05-05T19:59:26.489Z,97854.66
2019-05-05T20:01:58.231Z,97861.39
2019-05-05T20:04:29.993Z,97856.22
2019-05-05T20:07:01.636Z,97862.48
2019-05-05T20:09:34.047Z,97850.20
2019-05-05T20:12:07.265Z,97842.22
2019-05-05T20:14:39.256Z,97854.19
2019-05-05T20:17:19.048Z,97851.59
2019-05-05T20:19:54.341Z,97855.64
2019-05-05T20:22:25.989Z,97864.03
2019-05-05T20:24:57.693Z,97862.44
2019-05-05T20:27:30.203Z,97850.09
2019-05-05T20:30:01.777Z,97857.65
2019-05-05T20:32:40.614Z,97856.16
2019-05-05T20:35:40.977Z,97854.41
2019-05-05T20:38:33.214Z,97849.89
2019-05-05T20:41:14.182Z,97857.61
2019-05-05T20:43:45.783Z,97857.92
2019-05-05T20:46:17.289Z,97854.85
2019-05-05T20:48:49.260Z,97845.41
2019-05-05T20:51:24.272Z,97855.51
2019-05-05T20:53:55.986Z,97841.73
2019-05-05T20:56:30.441Z,97845.40
2019-05-05T20:59:02.109Z,97844.57
2019-05-05T21:01:34.149Z,97842.95
2019-05-05T21:04:06.544Z,97853.06
2019-05-05T21:06:38.441Z,97855.34
2019-05-05T21:09:10.056Z,97859.78
2019-05-05T21:11:43.783Z,97849.89
2019-05-05T21:14:15.815Z,97858.51
2019-05-05T21:16:47.674Z,97857.01
2019-05-05T21:19:20.851Z,97858.36
2019-05-05T21:21:54.842Z,97859.53
2019-05-05T21:24:26.685Z,97860.38
2019-05-05T21:27:04.318Z,97858.71
2019-05-05T21:29:41.916Z,97847.15
2019-05-05T21:32:09.366Z,97847.27
2019-05-05T21:34:41.222Z,97849.44
2019-05-05T21:37:14.170Z,97854.84
2019-05-05T21:39:46.398Z,97848.92
2019-05-05T21:42:18.185Z,97842.91
2019-05-05T21:44:50.398Z,97850.88
2019-05-05T21:47:24.009Z,97845.73
2019-05-05T21:49:55.742Z,97847.66
2019-05-05T21:52:39.690Z,97849.89
2019-05-05T21:55:20.028Z,97845.85
2019-05-05T21:58:10.815Z,97852.73
2019-05-05T22:01:01.261Z,97851.70
2019-05-05T22:03:37.202Z,97860.50
2019-05-05T22:06:08.893Z,97857.23
2019-05-05T22:08:40.501Z,97851.13
2019-05-05T22:11:14.224Z,97856.05
2019-05-05T22:13:47.376Z,97863.36
2019-05-05T22:16:20.403Z,97855.56
2019-05-05T22:18:54.080Z,97851.77
2019-05-05T22:21:47.918Z,97847.18
2019-05-05T22:24:20.436Z,97846.33
2019-05-05T22:26:54.198Z,97852.05
2019-05-05T22:29:26.014Z,97850.54
2019-05-05T22:31:58.313Z,97851.42
2019-05-05T22:34:33.389Z,97849.88
2019-05-05T22:37:08.924Z,97852.88
2019-05-05T22:39:38.313Z,97852.93
2019-05-05T22:42:09.995Z,97849.59
2019-05-05T22:44:43.335Z,97840.94
2019-05-05T22:47:15.023Z,97840.94
2019-05-05T22:49:46.526Z,97842.87
2019-05-05T22:52:18.276Z,97847.73
2019-05-05T22:54:50.595Z,97843.69
2019-05-05T22:57:22.163Z,97839.23
2019-05-05T22:59:54.209Z,97833.55
2019-05-05T23:02:29.576Z,97837.37
2019-05-05T23:05:07.002Z,97836.09
2019-05-05T23:07:41.152Z,97838.58
2019-05-05T23:10:14.095Z,97834.73
2019-05-05T23:12:45.800Z,97827.33
2019-05-05T23:15:17.965Z,97833.02
2019-05-05T23:18:04.285Z,97833.12
2019-05-05T23:21:15.554Z,97835.35
2019-05-05T23:24:14.314Z,97825.92
2019-05-05T23:26:46.962Z,97826.04
2019-05-05T23:29:18.792Z,97820.50
2019-05-05T23:31:53.846Z,97815.62
2019-05-05T23:34:25.590Z,97827.00
2019-05-05T23:36:57.294Z,97822.29
2019-05-05T23:39:28.957Z,97825.05
2019-05-05T23:42:01.556Z,97821.92
2019-05-05T23:44:34.533Z,97818.03
2019-05-05T23:47:07.311Z,97816.91
2019-05-05T23:49:38.988Z,97822.41
2019-05-05T23:52:11.518Z,97816.45
2019-05-05T23:54:44.709Z,97820.84
2019-05-05T23:57:16.290Z,97813.92
2019-05-05T23:59:48.987Z,97815.73
